createdAt,value
2023-12-18T00:01:40.602Z,87.16
2023-12-18T00:04:52.100Z,87.37
2023-12-18T00:07:59.533Z,87.24
2023-12-18T00:11:10.191Z,87.32
2023-12-18T00:14:17.387Z,87.02
2023-12-18T00:17:25.988Z,86.97
2023-12-18T00:20:33.420Z,87.20
2023-12-18T00:23:41.418Z,87.20
2023-12-18T00:26:51.154Z,87.34
2023-12-18T00:29:59.409Z,86.92
2023-12-18T00:33:07.039Z,87.18
2023-12-18T00:36:15.161Z,87.19
2023-12-18T00:39:30.588Z,87.26
2023-12-18T00:42:42.207Z,87.24
2023-12-18T00:45:49.439Z,87.37
2023-12-18T00:48:57.586Z,87.24
2023-12-18T00:52:04.940Z,87.20
2023-12-18T00:55:13.907Z,87.22
2023-12-18T00:58:23.602Z,87.17
2023-12-18T01:01:31.686Z,87.08
2023-12-18T01:04:40.353Z,86.99
2023-12-18T01:07:48.435Z,87.33
2023-12-18T01:10:55.655Z,87.59
2023-12-18T01:14:19.957Z,87.52
2023-12-18T01:17:33.075Z,87.60
2023-12-18T01:20:44.479Z,87.56
2023-12-18T01:23:51.748Z,87.67
2023-12-18T01:26:59.915Z,87.69
2023-12-18T01:30:30.971Z,88.02
2023-12-18T01:33:43.442Z,88.07
2023-12-18T01:36:51.457Z,88.34
2023-12-18T01:39:59.519Z,88.00
2023-12-18T01:43:06.919Z,87.85
2023-12-18T01:46:26.075Z,87.87
2023-12-18T01:49:33.509Z,87.30
2023-12-18T01:52:44.168Z,87.11
2023-12-18T01:56:01.994Z,87.14
2023-12-18T01:59:12.797Z,87.20
2023-12-18T02:02:23.462Z,87.14
2023-12-18T02:05:33.110Z,86.98
2023-12-18T02:08:42.729Z,87.07
2023-12-18T02:11:50.935Z,86.90
2023-12-18T02:14:58.656Z,86.59
2023-12-18T02:18:09.734Z,86.59
2023-12-18T02:21:23.993Z,86.71
2023-12-18T02:24:34.735Z,86.66
2023-12-18T02:27:43.754Z,86.67
2023-12-18T02:30:53.234Z,86.73
2023-12-18T02:34:00.643Z,86.69
2023-12-18T02:37:11.454Z,86.48
2023-12-18T02:40:21.525Z,86.56
2023-12-18T02:43:29.548Z,86.51
2023-12-18T02:46:43.196Z,86.47
2023-12-18T02:49:59.952Z,86.36
2023-12-18T02:53:20.486Z,86.39
2023-12-18T02:56:30.985Z,86.52
2023-12-18T02:59:38.831Z,86.50
2023-12-18T03:02:48.112Z,86.50
2023-12-18T03:05:55.355Z,86.51
2023-12-18T03:09:03.432Z,86.61
2023-12-18T03:12:13.495Z,86.76
2023-12-18T03:15:35.104Z,86.73
2023-12-18T03:18:42.481Z,86.67
2023-12-18T03:21:50.842Z,86.73
2023-12-18T03:24:58.149Z,86.69
2023-12-18T03:28:23.499Z,86.84
2023-12-18T03:31:30.676Z,86.85
2023-12-18T03:34:38.730Z,86.85
2023-12-18T03:37:45.865Z,86.91
2023-12-18T03:40:53.822Z,86.75
2023-12-18T03:44:05.172Z,86.78
2023-12-18T03:47:13.707Z,86.72
2023-12-18T03:50:24.693Z,86.50
2023-12-18T03:53:32.853Z,86.64
2023-12-18T03:56:39.990Z,86.56
2023-12-18T03:59:50.656Z,86.51
2023-12-18T04:02:58.243Z,86.38
2023-12-18T04:06:06.313Z,86.48
2023-12-18T04:09:13.697Z,86.20
2023-12-18T04:12:22.343Z,86.12
2023-12-18T04:15:38.581Z,86.21
2023-12-18T04:18:54.123Z,86.16
2023-12-18T04:22:01.257Z,86.06
2023-12-18T04:25:11.086Z,85.80
2023-12-18T04:28:21.210Z,85.76
2023-12-18T04:31:39.171Z,85.67
2023-12-18T04:34:47.456Z,85.47
2023-12-18T04:37:55.535Z,85.40
2023-12-18T04:41:09.203Z,85.67
2023-12-18T04:44:37.359Z,85.67
2023-12-18T04:47:48.068Z,85.48
2023-12-18T04:50:58.365Z,85.73
2023-12-18T04:54:24.181Z,85.97
2023-12-18T04:57:52.427Z,86.24
2023-12-18T05:00:59.948Z,86.13
2023-12-18T05:04:31.236Z,86.32
2023-12-18T05:07:38.544Z,86.42
2023-12-18T05:10:46.507Z,86.22
2023-12-18T05:13:54.467Z,86.16
2023-12-18T05:17:02.472Z,85.92
2023-12-18T05:20:14.504Z,85.91
2023-12-18T05:23:22.589Z,85.77
2023-12-18T05:26:31.074Z,85.57
2023-12-18T05:29:39.057Z,85.67
2023-12-18T05:32:46.454Z,85.38
2023-12-18T05:35:57.490Z,85.25
2023-12-18T05:39:04.718Z,85.22
2023-12-18T05:42:16.303Z,84.97
2023-12-18T05:45:23.570Z,85.04
2023-12-18T05:48:34.017Z,85.05
2023-12-18T05:51:44.194Z,85.28
2023-12-18T05:54:52.275Z,85.32
2023-12-18T05:58:09.791Z,85.26
2023-12-18T06:01:17.911Z,85.56
2023-12-18T06:04:25.126Z,85.69
2023-12-18T06:07:38.784Z,85.52
2023-12-18T06:10:48.640Z,85.51
2023-12-18T06:13:56.721Z,85.57
2023-12-18T06:17:10.242Z,85.86
2023-12-18T06:20:38.916Z,86.19
2023-12-18T06:23:54.099Z,85.95
2023-12-18T06:27:04.635Z,86.02
2023-12-18T06:30:13.743Z,85.73
2023-12-18T06:33:21.819Z,86.07
2023-12-18T06:36:29.124Z,86.06
2023-12-18T06:39:40.028Z,86.01
2023-12-18T06:42:47.290Z,86.19
2023-12-18T06:45:55.619Z,86.45
2023-12-18T06:49:02.881Z,86.60
2023-12-18T06:52:10.881Z,86.77
2023-12-18T06:55:20.789Z,86.51
2023-12-18T06:58:28.690Z,86.66
2023-12-18T07:01:48.109Z,87.08
2023-12-18T07:04:56.227Z,87.40
2023-12-18T07:08:04.033Z,87.50
2023-12-18T07:11:15.764Z,87.27
2023-12-18T07:14:22.834Z,87.20
2023-12-18T07:17:30.782Z,87.37
2023-12-18T07:20:37.995Z,87.16
2023-12-18T07:23:46.852Z,87.01
2023-12-18T07:26:56.667Z,86.98
2023-12-18T07:30:04.959Z,86.95
2023-12-18T07:33:12.783Z,86.47
2023-12-18T07:36:20.857Z,86.29
2023-12-18T07:39:28.181Z,86.32
2023-12-18T07:42:38.754Z,86.14
2023-12-18T07:45:45.962Z,85.67
2023-12-18T07:48:55.216Z,85.18
2023-12-18T07:52:02.557Z,84.78
2023-12-18T07:55:12.230Z,84.12
2023-12-18T07:58:22.008Z,83.61
2023-12-18T08:01:30.272Z,83.11
2023-12-18T08:04:37.820Z,82.48
2023-12-18T08:07:45.903Z,82.07
2023-12-18T08:10:53.117Z,81.54
2023-12-18T08:14:04.084Z,79.81
2023-12-18T08:17:11.315Z,78.58
2023-12-18T08:20:20.513Z,76.97
2023-12-18T08:23:28.086Z,75.92
2023-12-18T08:26:36.087Z,74.38
2023-12-18T08:29:46.617Z,73.25
2023-12-18T08:32:55.613Z,72.02
2023-12-18T08:36:09.507Z,70.78
2023-12-18T08:39:20.929Z,69.16
2023-12-18T08:42:29.169Z,68.83
2023-12-18T08:45:40.120Z,67.26
2023-12-18T08:48:47.386Z,66.89
2023-12-18T08:51:55.469Z,66.19
2023-12-18T08:55:02.618Z,64.97
2023-12-18T08:58:12.220Z,64.14
2023-12-18T09:01:22.104Z,62.75
2023-12-18T09:04:31.957Z,61.57
2023-12-18T09:07:39.222Z,60.32
2023-12-18T09:10:47.553Z,59.97
2023-12-18T09:13:54.718Z,58.51
2023-12-18T09:17:09.702Z,58.21
2023-12-18T09:20:36.222Z,57.71
2023-12-18T09:23:45.757Z,56.42
2023-12-18T09:26:52.970Z,56.20
2023-12-18T09:30:00.951Z,54.38
2023-12-18T09:33:10.962Z,53.89
2023-12-18T09:36:19.456Z,53.77
2023-12-18T09:39:26.912Z,53.84
2023-12-18T09:42:35.025Z,53.15
2023-12-18T09:45:42.443Z,52.43
2023-12-18T09:49:03.777Z,53.13
2023-12-18T09:52:28.289Z,51.88
2023-12-18T09:55:45.717Z,52.07
2023-12-18T09:58:53.633Z,51.90
2023-12-18T10:02:04.419Z,51.75
2023-12-18T10:05:14.749Z,52.54
2023-12-18T10:08:22.849Z,52.31
2023-12-18T10:11:31.361Z,52.95
2023-12-18T10:14:39.426Z,50.72
2023-12-18T10:17:49.936Z,50.87
2023-12-18T10:21:01.016Z,50.07
2023-12-18T10:24:19.922Z,50.67
2023-12-18T10:27:28.037Z,51.06
2023-12-18T10:30:36.019Z,51.40
2023-12-18T10:33:44.660Z,50.73
2023-12-18T10:36:59.488Z,51.58
2023-12-18T10:40:13.256Z,51.35
2023-12-18T10:43:36.990Z,51.49
2023-12-18T10:46:52.281Z,51.50
2023-12-18T10:50:04.600Z,51.08
2023-12-18T10:53:18.024Z,50.90
2023-12-18T10:56:46.583Z,50.53
2023-12-18T10:59:55.134Z,51.22
2023-12-18T11:03:05.530Z,51.90
2023-12-18T11:06:17.693Z,51.52
2023-12-18T11:09:28.290Z,50.51
2023-12-18T11:12:55.383Z,50.69
2023-12-18T11:16:33.942Z,50.59
2023-12-18T11:20:12.532Z,49.53
2023-12-18T11:23:37.425Z,50.30
2023-12-18T11:26:49.640Z,48.74
2023-12-18T11:29:59.256Z,48.71
2023-12-18T11:33:09.782Z,47.84
2023-12-18T11:36:28.289Z,48.37
2023-12-18T11:39:43.439Z,48.20
2023-12-18T11:42:54.156Z,48.39
2023-12-18T11:49:17.484Z,48.14
2023-12-18T11:52:36.128Z,48.01
2023-12-18T11:55:57.580Z,47.33
2023-12-18T11:59:08.930Z,47.64
2023-12-18T12:02:18.814Z,47.56
2023-12-18T12:05:27.692Z,47.70
2023-12-18T12:08:46.888Z,48.11
2023-12-18T12:11:55.834Z,47.44
2023-12-18T12:15:06.489Z,48.29
2023-12-18T12:18:14.652Z,47.62
2023-12-18T12:21:24.901Z,48.15
2023-12-18T12:24:42.312Z,47.82
2023-12-18T12:27:49.719Z,47.39
2023-12-18T12:31:00.728Z,45.94
2023-12-18T12:34:08.314Z,46.81
2023-12-18T12:37:16.326Z,46.31
2023-12-18T12:40:24.900Z,45.12
2023-12-18T12:43:32.971Z,44.36
2023-12-18T12:46:43.241Z,43.81
2023-12-18T12:49:52.527Z,44.23
2023-12-18T12:53:11.371Z,44.96
2023-12-18T12:56:19.727Z,45.15
2023-12-18T12:59:26.977Z,45.54
2023-12-18T13:02:38.115Z,46.11
2023-12-18T13:05:45.784Z,46.76
2023-12-18T13:08:53.983Z,46.54
2023-12-18T13:12:03.961Z,47.95
2023-12-18T13:15:12.958Z,47.82
2023-12-18T13:18:23.962Z,47.86
2023-12-18T13:21:32.283Z,47.97
2023-12-18T13:24:40.172Z,49.14
2023-12-18T13:27:48.510Z,50.43
2023-12-18T13:30:55.803Z,51.58
2023-12-18T13:34:06.837Z,53.13
2023-12-18T13:37:15.563Z,54.90
2023-12-18T13:40:23.942Z,54.85
2023-12-18T13:43:31.059Z,55.32
2023-12-18T13:46:39.159Z,56.47
2023-12-18T13:49:49.289Z,56.70
2023-12-18T13:52:57.483Z,57.35
2023-12-18T13:56:17.888Z,57.37
2023-12-18T13:59:25.880Z,57.95
2023-12-18T14:02:34.893Z,58.27
2023-12-18T14:05:45.500Z,59.42
2023-12-18T14:08:57.288Z,59.68
2023-12-18T14:12:12.827Z,59.76
2023-12-18T14:15:20.080Z,59.80
2023-12-18T14:18:28.184Z,60.58
2023-12-18T14:21:38.211Z,60.31
2023-12-18T14:24:59.645Z,60.94
2023-12-18T14:28:32.426Z,61.49
2023-12-18T14:31:50.252Z,62.21
2023-12-18T14:34:57.572Z,62.13
2023-12-18T14:38:09.029Z,62.37
2023-12-18T14:41:24.843Z,62.87
2023-12-18T14:44:37.781Z,62.71
2023-12-18T14:47:45.152Z,62.70
2023-12-18T14:50:54.559Z,62.46
2023-12-18T14:54:04.743Z,63.13
2023-12-18T14:57:19.400Z,62.97
2023-12-18T15:00:26.983Z,63.67
2023-12-18T15:03:35.115Z,64.25
2023-12-18T15:06:50.470Z,64.50
2023-12-18T15:10:07.493Z,64.71
2023-12-18T15:13:34.641Z,64.79
2023-12-18T15:16:43.418Z,64.74
2023-12-18T15:20:03.600Z,65.08
2023-12-18T15:23:12.031Z,65.23
2023-12-18T15:26:28.385Z,65.38
2023-12-18T15:29:47.461Z,65.40
2023-12-18T15:32:54.761Z,65.45
2023-12-18T15:36:13.161Z,65.34
2023-12-18T15:39:25.751Z,65.55
2023-12-18T15:42:44.033Z,65.35
2023-12-18T15:45:51.560Z,65.89
2023-12-18T15:49:02.674Z,65.94
2023-12-18T15:52:13.549Z,65.55
2023-12-18T15:55:21.650Z,65.50
2023-12-18T15:58:31.948Z,65.30
2023-12-18T16:01:40.064Z,65.95
2023-12-18T16:04:47.230Z,66.03
2023-12-18T16:07:55.357Z,65.66
2023-12-18T16:11:04.026Z,65.92
2023-12-18T16:14:14.814Z,65.53
2023-12-18T16:17:22.200Z,65.38
2023-12-18T16:20:31.487Z,65.35
2023-12-18T16:23:38.685Z,65.07
2023-12-18T16:26:50.437Z,65.63
2023-12-18T16:30:07.481Z,65.54
2023-12-18T16:33:20.456Z,65.71
2023-12-18T16:36:29.022Z,65.71
2023-12-18T16:39:37.105Z,65.34
2023-12-18T16:42:46.874Z,66.30
2023-12-18T16:45:57.917Z,65.81
2023-12-18T16:49:05.623Z,66.09
2023-12-18T16:52:13.815Z,65.73
2023-12-18T16:55:21.355Z,66.02
2023-12-18T16:58:29.360Z,65.72
2023-12-18T17:01:39.176Z,66.17
2023-12-18T17:04:47.252Z,66.15
2023-12-18T17:07:54.514Z,65.99
2023-12-18T17:11:09.184Z,66.18
2023-12-18T17:14:17.734Z,66.28
2023-12-18T17:17:30.854Z,66.30
2023-12-18T17:20:38.731Z,66.06
2023-12-18T17:23:46.844Z,66.02
2023-12-18T17:26:54.078Z,66.13
2023-12-18T17:30:02.541Z,65.52
2023-12-18T17:33:12.664Z,65.66
2023-12-18T17:36:22.203Z,65.92
2023-12-18T17:39:29.454Z,65.32
2023-12-18T17:42:43.446Z,65.81
2023-12-18T17:45:54.814Z,65.96
2023-12-18T17:49:05.656Z,65.66
2023-12-18T17:52:12.942Z,65.75
2023-12-18T17:55:21.129Z,65.81
2023-12-18T17:58:28.938Z,65.84
2023-12-18T18:01:37.059Z,66.10
2023-12-18T18:04:48.826Z,66.05
2023-12-18T18:07:57.095Z,66.32
2023-12-18T18:11:05.241Z,66.18
2023-12-18T18:14:13.834Z,66.19
2023-12-18T18:17:22.588Z,65.79
2023-12-18T18:20:33.400Z,65.77
2023-12-18T18:23:42.118Z,65.44
2023-12-18T18:26:50.238Z,65.54
2023-12-18T18:29:57.424Z,65.19
2023-12-18T18:33:09.410Z,65.56
2023-12-18T18:36:22.983Z,65.67
2023-12-18T18:39:31.227Z,65.51
2023-12-18T18:42:44.285Z,65.69
2023-12-18T18:45:52.527Z,65.45
2023-12-18T18:49:00.666Z,65.83
2023-12-18T18:52:11.703Z,65.48
2023-12-18T18:55:19.175Z,65.38
2023-12-18T18:58:27.430Z,65.27
2023-12-18T19:01:34.747Z,65.38
2023-12-18T19:04:50.230Z,65.07
2023-12-18T19:08:00.108Z,64.58
2023-12-18T19:11:09.303Z,64.85
2023-12-18T19:14:16.634Z,65.23
2023-12-18T19:17:31.489Z,65.23
2023-12-18T19:20:38.724Z,65.61
2023-12-18T19:23:55.957Z,65.35
2023-12-18T19:27:15.388Z,65.21
2023-12-18T19:30:29.502Z,65.41
2023-12-18T19:33:51.429Z,65.74
2023-12-18T19:36:59.567Z,65.91
2023-12-18T19:40:11.326Z,65.99
2023-12-18T19:43:19.373Z,65.82
2023-12-18T19:46:27.574Z,65.76
2023-12-18T19:49:37.274Z,66.11
2023-12-18T19:52:45.212Z,65.45
2023-12-18T19:55:55.945Z,65.67
2023-12-18T19:59:03.673Z,65.55
2023-12-18T20:02:11.675Z,65.44
2023-12-18T20:05:19.235Z,65.43
2023-12-18T20:08:27.667Z,65.29
2023-12-18T20:11:37.401Z,65.76
2023-12-18T20:14:45.502Z,66.05
2023-12-18T20:17:52.814Z,65.91
2023-12-18T20:21:00.900Z,65.95
2023-12-18T20:24:09.710Z,65.95
2023-12-18T20:27:20.765Z,66.29
2023-12-18T20:30:27.965Z,66.59
2023-12-18T20:33:36.074Z,66.67
2023-12-18T20:36:43.521Z,66.78
2023-12-18T20:39:51.605Z,66.96
2023-12-18T20:43:02.669Z,67.45
2023-12-18T20:46:10.768Z,67.59
2023-12-18T20:49:17.967Z,67.52
2023-12-18T20:52:25.914Z,67.78
2023-12-18T20:55:33.190Z,67.84
2023-12-18T20:58:43.822Z,68.13
2023-12-18T21:01:51.226Z,67.79
2023-12-18T21:04:59.294Z,67.70
2023-12-18T21:08:07.532Z,68.05
2023-12-18T21:11:15.806Z,68.13
2023-12-18T21:14:32.626Z,68.31
2023-12-18T21:17:43.229Z,68.33
2023-12-18T21:20:50.399Z,68.53
2023-12-18T21:23:58.441Z,68.49
2023-12-18T21:27:07.000Z,68.28
2023-12-18T21:30:18.460Z,68.61
2023-12-18T21:33:25.881Z,68.11
2023-12-18T21:36:34.395Z,68.22
2023-12-18T21:39:44.169Z,67.93
2023-12-18T21:42:52.206Z,68.09
2023-12-18T21:46:02.583Z,68.06
2023-12-18T21:49:11.729Z,67.93
2023-12-18T21:52:19.044Z,68.23
2023-12-18T21:55:27.162Z,67.86
2023-12-18T21:58:34.273Z,67.96
2023-12-18T22:01:44.955Z,67.94
2023-12-18T22:04:52.091Z,68.05
2023-12-18T22:08:00.472Z,68.04
2023-12-18T22:11:08.437Z,68.08
2023-12-18T22:14:16.542Z,68.04
2023-12-18T22:17:26.569Z,68.08
2023-12-18T22:20:34.558Z,68.26
2023-12-18T22:23:44.607Z,67.83
2023-12-18T22:26:53.606Z,67.96
2023-12-18T22:30:00.902Z,67.52
2023-12-18T22:33:11.830Z,67.60
2023-12-18T22:36:19.135Z,67.72
2023-12-18T22:39:27.175Z,67.63
2023-12-18T22:42:34.428Z,67.72
2023-12-18T22:45:42.432Z,67.79
2023-12-18T22:48:52.261Z,67.74
2023-12-18T22:52:00.624Z,67.87
2023-12-18T22:55:11.123Z,67.51
2023-12-18T22:58:19.083Z,67.86
2023-12-18T23:01:26.522Z,67.81
2023-12-18T23:04:37.566Z,67.85
2023-12-18T23:07:44.996Z,67.72
2023-12-18T23:10:53.885Z,67.97
2023-12-18T23:14:06.808Z,68.17
2023-12-18T23:17:14.741Z,68.01
2023-12-18T23:20:24.704Z,68.37
2023-12-18T23:23:32.896Z,68.07
2023-12-18T23:26:41.068Z,68.17
2023-12-18T23:29:51.360Z,68.23
2023-12-18T23:32:58.893Z,68.15
2023-12-18T23:36:10.756Z,67.99
2023-12-18T23:39:18.144Z,68.30
2023-12-18T23:42:26.420Z,68.06
2023-12-18T23:45:33.851Z,68.39
2023-12-18T23:48:41.955Z,68.13
2023-12-18T23:51:54.899Z,68.07
2023-12-18T23:55:02.876Z,68.52
2023-12-18T23:58:14.530Z,68.41
